Time;durP1;ratioP1;P1;durP2;ratioP2;P2;SDS_P1;SDS_P2;PMS_P1;PMS_P2;Temp;Humidity;BMP_temperature;BMP_pressure;BME280_temperature;BME280_humidity;BME280_pressure;Samples;Min_cycle;Max_cycle;Signal;HPM_P1;HPM_P2
2023/11/07 00:00:39;;;;;;;0.25;0.20;;;;;;;;;;5055077;28;20032;-77
2023/11/07 00:03:05;;;;;;;0.03;0.00;;;;;;;;;;5055648;28;20028;-77
2023/11/07 00:05:31;;;;;;;0.17;0.17;;;;;;;;;;5055476;28;20040;-77
2023/11/07 00:07:57;;;;;;;0.65;0.10;;;;;;;;;;5054990;28;20088;-77
2023/11/07 00:10:28;;;;;;;0.10;0.10;;;;;;;;;;5055817;28;20464;-77
2023/11/07 00:12:55;;;;;;;0.22;0.10;;;;;;;;;;5054933;28;20075;-75
2023/11/07 00:15:21;;;;;;;0.10;0.10;;;;;;;;;;5034357;28;20035;-76
2023/11/07 00:17:48;;;;;;;0.47;0.30;;;;;;;;;;5035508;28;20434;-76
2023/11/07 00:20:14;;;;;;;0.28;0.10;;;;;;;;;;5054876;28;20020;-76
2023/11/07 00:22:40;;;;;;;0.38;0.10;;;;;;;;;;5054782;28;20036;-76
2023/11/07 00:25:07;;;;;;;0.57;0.10;;;;;;;;;;5054918;28;20040;-76
2023/11/07 00:27:33;;;;;;;0.38;0.20;;;;;;;;;;5054970;28;20506;-77
2023/11/07 00:29:59;;;;;;;0.38;0.10;;;;;;;;;;5037468;28;20535;-76
2023/11/07 00:32:25;;;;;;;0.08;0.08;;;;;;;;;;5037025;28;20353;-76
2023/11/07 00:34:51;;;;;;;0.10;0.10;;;;;;;;;;5055020;28;20021;-76
2023/11/07 00:37:18;;;;;;;0.00;0.00;;;;;;;;;;5053895;28;20510;-77
2023/11/07 00:39:44;;;;;;;0.10;0.10;;;;;;;;;;5054262;28;20029;-77
2023/11/07 00:42:10;;;;;;;0.30;0.10;;;;;;;;;;5054266;28;20036;-76
2023/11/07 00:44:36;;;;;;;0.20;0.10;;;;;;;;;;5053632;28;20021;-76
2023/11/07 00:47:02;;;;;;;0.00;0.00;;;;;;;;;;5054066;28;20028;-76
2023/11/07 00:49:28;;;;;;;0.10;0.10;;;;;;;;;;5036018;28;20211;-76
2023/11/07 00:51:55;;;;;;;0.08;0.00;;;;;;;;;;5054618;28;20032;-76
2023/11/07 00:54:21;;;;;;;0.10;0.10;;;;;;;;;;5056230;28;20063;-76
2023/11/07 00:56:47;;;;;;;0.00;0.00;;;;;;;;;;5054361;28;20498;-76
2023/11/07 00:59:13;;;;;;;0.40;0.05;;;;;;;;;;5056682;28;20024;-77
2023/11/07 01:01:39;;;;;;;0.50;0.20;;;;;;;;;;5036391;28;20051;-76
2023/11/07 01:04:05;;;;;;;0.10;0.10;;;;;;;;;;5053764;28;20024;-76
2023/11/07 01:06:32;;;;;;;0.00;0.00;;;;;;;;;;5052798;28;20032;-76
2023/11/07 01:08:58;;;;;;;0.10;0.10;;;;;;;;;;5035445;28;20081;-76
2023/11/07 01:11:24;;;;;;;0.20;0.10;;;;;;;;;;5053584;28;20021;-75
2023/11/07 01:13:50;;;;;;;1.35;0.00;;;;;;;;;;5053292;28;20020;-76
2023/11/07 01:16:16;;;;;;;0.00;0.00;;;;;;;;;;5053595;28;20017;-76
2023/11/07 01:18:42;;;;;;;0.10;0.10;;;;;;;;;;5034518;28;20430;-75
2023/11/07 01:21:09;;;;;;;0.03;0.03;;;;;;;;;;5053122;28;20055;-76
2023/11/07 01:23:36;;;;;;;0.85;0.10;;;;;;;;;;5045404;28;20048;-76
2023/11/07 01:26:04;;;;;;;0.20;0.10;;;;;;;;;;5041924;28;20021;-76
2023/11/07 01:28:30;;;;;;;0.10;0.08;;;;;;;;;;5052565;28;20032;-75
2023/11/07 01:30:57;;;;;;;0.25;0.10;;;;;;;;;;5053295;28;20021;-76
2023/11/07 01:33:23;;;;;;;0.20;0.20;;;;;;;;;;5051073;28;20033;-76
2023/11/07 01:35:49;;;;;;;0.10;0.10;;;;;;;;;;5053126;28;20028;-76
2023/11/07 01:38:15;;;;;;;0.10;0.10;;;;;;;;;;5052396;28;20016;-76
2023/11/07 01:40:41;;;;;;;0.10;0.00;;;;;;;;;;5052473;28;20033;-76
2023/11/07 01:43:14;;;;;;;0.10;0.10;;;;;;;;;;5035216;28;20422;-76
2023/11/07 01:45:41;;;;;;;0.17;0.10;;;;;;;;;;5053438;28;20024;-76
2023/11/07 01:48:10;;;;;;;0.75;0.20;;;;;;;;;;5054181;28;20039;-75
2023/11/07 01:50:37;;;;;;;0.25;0.10;;;;;;;;;;5028843;28;20678;-76
2023/11/07 01:53:03;;;;;;;0.30;0.10;;;;;;;;;;5054688;28;20056;-75
2023/11/07 01:55:30;;;;;;;0.15;0.10;;;;;;;;;;5053060;28;20075;-76
2023/11/07 01:57:56;;;;;;;0.10;0.10;;;;;;;;;;5035370;28;20482;-76
2023/11/07 02:00:23;;;;;;;0.10;0.10;;;;;;;;;;5034875;28;20028;-76
2023/11/07 02:02:49;;;;;;;0.10;0.10;;;;;;;;;;5038251;28;20025;-75
2023/11/07 02:05:15;;;;;;;0.00;0.00;;;;;;;;;;5056015;28;20005;-74
2023/11/07 02:07:41;;;;;;;0.10;0.10;;;;;;;;;;5063055;28;20021;-76
2023/11/07 02:10:11;;;;;;;0.20;0.10;;;;;;;;;;5052715;28;20041;-76
2023/11/07 02:12:37;;;;;;;0.10;0.10;;;;;;;;;;5035314;28;20025;-75
2023/11/07 02:15:34;;;;;;;0.10;0.10;;;;;;;;;;5053544;28;20025;-75
2023/11/07 02:18:01;;;;;;;0.20;0.10;;;;;;;;;;5052743;28;20021;-76
2023/11/07 02:20:28;;;;;;;0.05;0.05;;;;;;;;;;5052468;28;20021;-76
2023/11/07 02:22:56;;;;;;;0.20;0.20;;;;;;;;;;5034779;28;20383;-76
2023/11/07 02:25:22;;;;;;;0.03;0.03;;;;;;;;;;5054346;28;20017;-76
2023/11/07 02:27:48;;;;;;;0.15;0.10;;;;;;;;;;5053235;28;20028;-76
2023/11/07 02:30:14;;;;;;;0.10;0.10;;;;;;;;;;5051049;28;20029;-77
2023/11/07 02:32:41;;;;;;;0.00;0.00;;;;;;;;;;5052706;28;20108;-76
2023/11/07 02:35:07;;;;;;;0.08;0.08;;;;;;;;;;5053938;28;20021;-76
2023/11/07 02:37:34;;;;;;;0.32;0.10;;;;;;;;;;5052614;28;20032;-76
2023/11/07 02:40:00;;;;;;;0.32;0.10;;;;;;;;;;5052349;28;20364;-76
2023/11/07 02:42:30;;;;;;;0.13;0.10;;;;;;;;;;5053950;28;20024;-76
2023/11/07 02:44:59;;;;;;;0.00;0.00;;;;;;;;;;5027905;28;20090;-76
2023/11/07 02:47:25;;;;;;;0.25;0.00;;;;;;;;;;5052740;28;20062;-76
2023/11/07 02:49:52;;;;;;;0.05;0.00;;;;;;;;;;5051478;28;20021;-76
2023/11/07 02:52:18;;;;;;;0.00;0.00;;;;;;;;;;5033606;28;20488;-76
2023/11/07 02:54:45;;;;;;;0.10;0.10;;;;;;;;;;5051085;28;20029;-76
2023/11/07 02:57:11;;;;;;;0.00;0.00;;;;;;;;;;5051543;28;20020;-76
2023/11/07 02:59:37;;;;;;;0.20;0.17;;;;;;;;;;5032734;28;20113;-76
2023/11/07 03:02:03;;;;;;;0.00;0.00;;;;;;;;;;5051192;28;20157;-76
2023/11/07 03:04:30;;;;;;;0.10;0.10;;;;;;;;;;5033173;28;20053;-76
2023/11/07 03:06:57;;;;;;;0.13;0.08;;;;;;;;;;5032690;28;20112;-76
2023/11/07 03:09:23;;;;;;;0.10;0.10;;;;;;;;;;5052161;28;20052;-76
2023/11/07 03:11:50;;;;;;;0.20;0.10;;;;;;;;;;5050929;28;20041;-76
2023/11/07 03:14:16;;;;;;;0.10;0.00;;;;;;;;;;5055574;28;20413;-75
2023/11/07 03:16:42;;;;;;;0.45;0.00;;;;;;;;;;5047719;28;20052;-75
2023/11/07 03:19:09;;;;;;;0.05;0.00;;;;;;;;;;5057742;28;20440;-76
2023/11/07 03:21:35;;;;;;;0.00;0.00;;;;;;;;;;5049977;28;20031;-76
2023/11/07 03:24:03;;;;;;;0.20;0.00;;;;;;;;;;5047448;28;20025;-75
2023/11/07 03:26:29;;;;;;;0.43;0.08;;;;;;;;;;5050911;28;20027;-74
2023/11/07 03:28:56;;;;;;;0.10;0.00;;;;;;;;;;5024762;28;20049;-75
2023/11/07 03:31:22;;;;;;;0.10;0.10;;;;;;;;;;5050655;28;20097;-76
2023/11/07 03:33:48;;;;;;;0.00;0.00;;;;;;;;;;5050526;28;20029;-76
2023/11/07 03:36:15;;;;;;;0.00;0.00;;;;;;;;;;5050410;28;20458;-76
2023/11/07 03:38:43;;;;;;;0.00;0.00;;;;;;;;;;5049848;28;20018;-76
2023/11/07 03:41:09;;;;;;;0.10;0.10;;;;;;;;;;5049659;28;20024;-75
2023/11/07 03:43:35;;;;;;;0.00;0.00;;;;;;;;;;5050265;28;20083;-76
2023/11/07 03:46:01;;;;;;;0.10;0.10;;;;;;;;;;5050553;28;20013;-76
2023/11/07 03:48:27;;;;;;;0.00;0.00;;;;;;;;;;5051169;28;20020;-76
2023/11/07 03:50:54;;;;;;;0.08;0.08;;;;;;;;;;5050380;28;20368;-76
2023/11/07 03:53:20;;;;;;;0.00;0.00;;;;;;;;;;5049111;28;20064;-76
2023/11/07 03:55:46;;;;;;;0.03;0.03;;;;;;;;;;5051162;28;20028;-76
2023/11/07 03:58:12;;;;;;;0.05;0.05;;;;;;;;;;5051729;28;20028;-77
2023/11/07 04:00:40;;;;;;;0.20;0.10;;;;;;;;;;5052458;28;20024;-79
2023/11/07 04:03:07;;;;;;;0.00;0.00;;;;;;;;;;5050517;28;20025;-78
2023/11/07 04:05:33;;;;;;;0.00;0.00;;;;;;;;;;5032632;28;20048;-78
2023/11/07 04:07:59;;;;;;;0.30;0.20;;;;;;;;;;5056035;28;20430;-77
2023/11/07 04:10:27;;;;;;;0.00;0.00;;;;;;;;;;5064507;28;20033;-78
2023/11/07 04:12:53;;;;;;;0.17;0.10;;;;;;;;;;5066686;28;20051;-79
2023/11/07 04:15:19;;;;;;;0.03;0.03;;;;;;;;;;5040770;28;20022;-78
2023/11/07 04:17:47;;;;;;;0.00;0.00;;;;;;;;;;5053084;28;20498;-78
2023/11/07 04:20:14;;;;;;;0.00;0.00;;;;;;;;;;5064165;28;20044;-78
2023/11/07 04:22:40;;;;;;;0.00;0.00;;;;;;;;;;5055353;28;20022;-78
2023/11/07 04:25:07;;;;;;;0.00;0.00;;;;;;;;;;5057545;28;20021;-77
2023/11/07 04:27:36;;;;;;;0.00;0.00;;;;;;;;;;5063174;28;20037;-77
2023/11/07 04:30:06;;;;;;;0.00;0.00;;;;;;;;;;5062473;28;20150;-77
2023/11/07 04:32:35;;;;;;;0.00;0.00;;;;;;;;;;5062648;28;20036;-76
2023/11/07 04:35:02;;;;;;;0.35;0.00;;;;;;;;;;5056216;28;20029;-78
2023/11/07 04:37:28;;;;;;;0.10;0.10;;;;;;;;;;5065606;28;20025;-78
2023/11/07 04:39:55;;;;;;;0.00;0.00;;;;;;;;;;5064424;28;20439;-77
2023/11/07 04:42:21;;;;;;;0.00;0.00;;;;;;;;;;5057756;28;20052;-77
2023/11/07 04:44:47;;;;;;;0.17;0.10;;;;;;;;;;5056338;28;20391;-77
2023/11/07 04:47:16;;;;;;;0.00;0.00;;;;;;;;;;5059896;28;20025;-77
2023/11/07 04:49:42;;;;;;;0.00;0.00;;;;;;;;;;5045202;28;20115;-77
2023/11/07 04:52:09;;;;;;;0.00;0.00;;;;;;;;;;5041162;28;20017;-78
2023/11/07 04:54:35;;;;;;;0.00;0.00;;;;;;;;;;5038411;28;20095;-78
2023/11/07 04:57:01;;;;;;;0.00;0.00;;;;;;;;;;5057510;28;20074;-78
2023/11/07 04:59:27;;;;;;;0.30;0.10;;;;;;;;;;5060695;28;20036;-78
2023/11/07 05:01:53;;;;;;;0.10;0.10;;;;;;;;;;5040931;28;20075;-78
2023/11/07 05:04:20;;;;;;;0.35;0.10;;;;;;;;;;5051679;28;20021;-78
2023/11/07 05:06:46;;;;;;;0.20;0.10;;;;;;;;;;5038146;28;20021;-78
2023/11/07 05:09:13;;;;;;;0.00;0.00;;;;;;;;;;5056571;28;20017;-78
2023/11/07 05:11:39;;;;;;;0.08;0.08;;;;;;;;;;5057040;28;20032;-78
2023/11/07 05:14:07;;;;;;;0.00;0.00;;;;;;;;;;5056137;28;20036;-78
2023/11/07 05:16:34;;;;;;;0.30;0.00;;;;;;;;;;5056266;28;20017;-78
2023/11/07 05:19:00;;;;;;;0.00;0.00;;;;;;;;;;5030237;28;20025;-78
2023/11/07 05:21:26;;;;;;;0.10;0.05;;;;;;;;;;5030435;28;20017;-78
2023/11/07 05:23:52;;;;;;;0.00;0.00;;;;;;;;;;5057048;28;20029;-78
2023/11/07 05:26:18;;;;;;;0.00;0.00;;;;;;;;;;5054573;28;20066;-76
2023/11/07 05:28:44;;;;;;;0.20;0.10;;;;;;;;;;5052138;28;20048;-77
2023/11/07 05:31:11;;;;;;;0.20;0.13;;;;;;;;;;5052385;28;20460;-77
2023/11/07 05:33:37;;;;;;;0.00;0.00;;;;;;;;;;5035025;28;20044;-77
2023/11/07 05:36:04;;;;;;;0.00;0.00;;;;;;;;;;5051051;28;20072;-76
2023/11/07 05:38:30;;;;;;;0.32;0.30;;;;;;;;;;5052559;28;20039;-77
2023/11/07 05:40:57;;;;;;;0.00;0.00;;;;;;;;;;5052540;28;20028;-77
2023/11/07 05:43:24;;;;;;;0.10;0.10;;;;;;;;;;5034864;28;20470;-76
2023/11/07 05:45:51;;;;;;;0.00;0.00;;;;;;;;;;5045419;28;20373;-76
2023/11/07 05:48:18;;;;;;;0.00;0.00;;;;;;;;;;5052440;28;20083;-76
2023/11/07 05:50:44;;;;;;;0.10;0.10;;;;;;;;;;5070413;28;20044;-76
2023/11/07 05:53:10;;;;;;;0.00;0.00;;;;;;;;;;5059821;28;20025;-77
2023/11/07 05:55:36;;;;;;;0.20;0.20;;;;;;;;;;5050893;28;20037;-77
2023/11/07 05:58:02;;;;;;;0.20;0.20;;;;;;;;;;5053007;28;20074;-78
2023/11/07 06:00:28;;;;;;;0.10;0.10;;;;;;;;;;5053395;28;20063;-76
2023/11/07 06:02:55;;;;;;;0.10;0.10;;;;;;;;;;5053925;28;20418;-75
2023/11/07 06:05:21;;;;;;;0.10;0.10;;;;;;;;;;5052373;28;20027;-76
2023/11/07 06:07:48;;;;;;;0.88;0.35;;;;;;;;;;5051153;28;20029;-76
2023/11/07 06:10:16;;;;;;;0.98;0.30;;;;;;;;;;5035546;28;20499;-76
2023/11/07 06:12:43;;;;;;;0.47;0.30;;;;;;;;;;5055085;28;20036;-76
2023/11/07 06:15:09;;;;;;;0.17;0.17;;;;;;;;;;5064830;28;20044;-77
2023/11/07 06:17:35;;;;;;;0.22;0.10;;;;;;;;;;5038300;28;20507;-76
2023/11/07 06:20:01;;;;;;;0.30;0.20;;;;;;;;;;5051665;28;20032;-75
2023/11/07 06:22:27;;;;;;;0.35;0.20;;;;;;;;;;5076467;28;20013;-76
2023/11/07 06:24:53;;;;;;;0.00;0.00;;;;;;;;;;5057065;28;20025;-77
2023/11/07 06:27:19;;;;;;;0.10;0.10;;;;;;;;;;5056149;28;20457;-77
2023/11/07 06:29:48;;;;;;;0.30;0.20;;;;;;;;;;5055910;28;20029;-76
2023/11/07 06:32:14;;;;;;;0.20;0.20;;;;;;;;;;5036325;28;20112;-77
2023/11/07 06:34:40;;;;;;;0.20;0.13;;;;;;;;;;5054758;28;20025;-76
2023/11/07 06:37:07;;;;;;;0.20;0.20;;;;;;;;;;5034832;28;20021;-77
2023/11/07 06:39:33;;;;;;;0.10;0.10;;;;;;;;;;5052872;28;20033;-77
2023/11/07 06:42:00;;;;;;;0.22;0.20;;;;;;;;;;5051654;28;20104;-76
2023/11/07 06:44:27;;;;;;;0.10;0.10;;;;;;;;;;5033354;28;20025;-76
2023/11/07 06:46:53;;;;;;;0.10;0.10;;;;;;;;;;5034728;28;20081;-77
2023/11/07 06:49:19;;;;;;;0.70;0.10;;;;;;;;;;5060874;28;20074;-77
2023/11/07 06:51:45;;;;;;;0.43;0.10;;;;;;;;;;5071929;28;20070;-77
2023/11/07 06:54:12;;;;;;;0.10;0.10;;;;;;;;;;5034552;28;20635;-77
2023/11/07 06:56:38;;;;;;;0.17;0.15;;;;;;;;;;5035883;28;20032;-75
2023/11/07 06:59:04;;;;;;;0.30;0.17;;;;;;;;;;5033846;28;20120;-76
2023/11/07 07:01:32;;;;;;;0.55;0.20;;;;;;;;;;5034073;28;20032;-76
2023/11/07 07:03:58;;;;;;;0.20;0.20;;;;;;;;;;5052979;28;20066;-76
2023/11/07 07:06:24;;;;;;;0.17;0.17;;;;;;;;;;5049478;28;20067;-77
2023/11/07 07:08:51;;;;;;;0.30;0.30;;;;;;;;;;5035037;28;20259;-77
2023/11/07 07:11:20;;;;;;;0.95;0.50;;;;;;;;;;5036970;28;20021;-76
2023/11/07 07:13:46;;;;;;;0.30;0.22;;;;;;;;;;5052513;28;20021;-76
2023/11/07 07:16:13;;;;;;;0.10;0.10;;;;;;;;;;5051156;28;20094;-77
2023/11/07 07:18:40;;;;;;;0.30;0.20;;;;;;;;;;5034041;28;20033;-76
2023/11/07 07:21:07;;;;;;;0.30;0.30;;;;;;;;;;5054212;28;20013;-76
2023/11/07 07:23:36;;;;;;;0.20;0.20;;;;;;;;;;5038765;28;20025;-76
2023/11/07 07:26:08;;;;;;;0.25;0.20;;;;;;;;;;5042115;28;20108;-77
2023/11/07 07:28:36;;;;;;;;;;;;;;;;;;5036278;28;20040;-77
2023/11/07 07:31:06;;;;;;;0.30;0.20;;;;;;;;;;5028094;28;19991;-77
2023/11/07 07:33:32;;;;;;;0.40;0.32;;;;;;;;;;5052973;28;20036;-77
2023/11/07 07:36:02;;;;;;;0.20;0.20;;;;;;;;;;5049303;28;20029;-77
2023/11/07 07:38:30;;;;;;;0.22;0.22;;;;;;;;;;5050486;28;20460;-76
2023/11/07 07:40:57;;;;;;;0.50;0.13;;;;;;;;;;5052597;28;20028;-75
2023/11/07 07:43:23;;;;;;;0.15;0.15;;;;;;;;;;5068484;28;20052;-76
2023/11/07 07:45:50;;;;;;;0.10;0.10;;;;;;;;;;5042075;28;20022;-76
2023/11/07 07:48:17;;;;;;;0.40;0.30;;;;;;;;;;5049250;28;20021;-76
2023/11/07 07:50:46;;;;;;;1.30;0.30;;;;;;;;;;5060758;28;20040;-76
2023/11/07 07:53:16;;;;;;;0.50;0.20;;;;;;;;;;5057902;28;20036;-76
2023/11/07 07:55:43;;;;;;;0.80;0.30;;;;;;;;;;5054829;28;20088;-76
2023/11/07 07:58:18;;;;;;;0.20;0.20;;;;;;;;;;5047970;28;20035;-77
2023/11/07 08:00:49;;;;;;;0.55;0.32;;;;;;;;;;5052794;28;20029;-76
2023/11/07 08:03:16;;;;;;;0.32;0.32;;;;;;;;;;5037740;28;20017;-77
2023/11/07 08:05:44;;;;;;;0.52;0.20;;;;;;;;;;5040295;28;20383;-77
2023/11/07 08:08:10;;;;;;;0.80;0.50;;;;;;;;;;5024352;28;20025;-77
2023/11/07 08:10:36;;;;;;;0.65;0.30;;;;;;;;;;5050975;28;20097;-77
2023/11/07 08:13:06;;;;;;;0.30;0.30;;;;;;;;;;5046771;28;20383;-77
2023/11/07 08:15:34;;;;;;;0.30;0.30;;;;;;;;;;5055164;28;20017;-77
2023/11/07 08:18:05;;;;;;;0.28;0.20;;;;;;;;;;5055168;28;20167;-77
2023/11/07 08:20:33;;;;;;;0.28;0.28;;;;;;;;;;5073492;28;20059;-79
2023/11/07 08:22:59;;;;;;;0.38;0.20;;;;;;;;;;5077149;28;20135;-78
2023/11/07 08:25:27;;;;;;;0.20;0.20;;;;;;;;;;5064412;28;20421;-77
2023/11/07 08:27:54;;;;;;;0.20;0.20;;;;;;;;;;5055826;28;20040;-76
2023/11/07 08:30:23;;;;;;;0.57;0.20;;;;;;;;;;5054715;28;20519;-76
2023/11/07 08:32:50;;;;;;;0.40;0.30;;;;;;;;;;5045041;28;20379;-76
2023/11/07 08:35:16;;;;;;;0.22;0.20;;;;;;;;;;5056141;28;20094;-77
2023/11/07 08:37:46;;;;;;;0.20;0.20;;;;;;;;;;5033411;28;20044;-76
2023/11/07 08:40:12;;;;;;;0.15;0.15;;;;;;;;;;5054026;28;20459;-77
2023/11/07 08:42:44;;;;;;;0.32;0.20;;;;;;;;;;5036866;28;20078;-76
2023/11/07 08:45:15;;;;;;;0.35;0.35;;;;;;;;;;5055047;28;20428;-77
2023/11/07 08:47:47;;;;;;;0.30;0.30;;;;;;;;;;5052539;28;20028;-76
2023/11/07 08:50:13;;;;;;;0.98;0.40;;;;;;;;;;5050490;28;20506;-77
2023/11/07 08:52:40;;;;;;;0.68;0.40;;;;;;;;;;5068113;28;20028;-77
2023/11/07 08:55:08;;;;;;;0.82;0.28;;;;;;;;;;5054450;28;20024;-77
2023/11/07 08:57:38;;;;;;;0.75;0.55;;;;;;;;;;5054337;28;20120;-77
2023/11/07 09:00:08;;;;;;;0.30;0.30;;;;;;;;;;5053475;28;20081;-77
2023/11/07 09:02:36;;;;;;;0.45;0.30;;;;;;;;;;5054134;28;20107;-76
2023/11/07 09:05:03;;;;;;;0.40;0.40;;;;;;;;;;5035635;28;20032;-78
2023/11/07 09:07:29;;;;;;;0.15;0.15;;;;;;;;;;5036455;28;20092;-76
2023/11/07 09:09:55;;;;;;;0.30;0.30;;;;;;;;;;5055265;28;20029;-77
2023/11/07 09:12:21;;;;;;;0.20;0.20;;;;;;;;;;5056420;28;20017;-77
2023/11/07 09:14:48;;;;;;;0.55;0.32;;;;;;;;;;5055658;28;20070;-77
2023/11/07 09:17:14;;;;;;;1.25;0.40;;;;;;;;;;5035949;28;20025;-76
2023/11/07 09:19:43;;;;;;;0.30;0.30;;;;;;;;;;5053821;28;20103;-77
2023/11/07 09:22:10;;;;;;;0.30;0.20;;;;;;;;;;5062865;28;20021;-75
2023/11/07 09:24:36;;;;;;;0.68;0.68;;;;;;;;;;5042581;28;20370;-77
2023/11/07 09:27:05;;;;;;;0.35;0.20;;;;;;;;;;5054046;28;20032;-77
2023/11/07 09:29:33;;;;;;;1.83;0.40;;;;;;;;;;5047925;28;20073;-77
2023/11/07 09:32:00;;;;;;;0.47;0.35;;;;;;;;;;5049964;28;20070;-77
2023/11/07 09:34:27;;;;;;;0.20;0.20;;;;;;;;;;5036339;28;20017;-76
2023/11/07 09:36:53;;;;;;;0.30;0.30;;;;;;;;;;5054427;28;20029;-76
2023/11/07 09:39:19;;;;;;;0.20;0.20;;;;;;;;;;5052966;28;20021;-76
2023/11/07 09:41:45;;;;;;;0.20;0.20;;;;;;;;;;5053086;28;20060;-76
2023/11/07 09:44:11;;;;;;;0.40;0.20;;;;;;;;;;5035451;28;20017;-76
2023/11/07 09:46:39;;;;;;;1.08;0.40;;;;;;;;;;5052465;28;20060;-76
2023/11/07 09:49:07;;;;;;;0.30;0.22;;;;;;;;;;5029998;28;20043;-76
2023/11/07 09:51:35;;;;;;;0.20;0.20;;;;;;;;;;5062234;28;20028;-77
2023/11/07 09:54:02;;;;;;;0.30;0.30;;;;;;;;;;5053230;28;20017;-76
2023/11/07 09:56:31;;;;;;;0.80;0.30;;;;;;;;;;5053095;28;20036;-76
2023/11/07 09:59:03;;;;;;;0.55;0.20;;;;;;;;;;5052081;28;20057;-76
2023/11/07 10:01:29;;;;;;;0.70;0.60;;;;;;;;;;5046739;28;20045;-77
2023/11/07 10:03:57;;;;;;;0.40;0.40;;;;;;;;;;5052429;28;20105;-75
2023/11/07 10:06:23;;;;;;;0.70;0.43;;;;;;;;;;5052809;28;20401;-76
2023/11/07 10:08:49;;;;;;;0.40;0.30;;;;;;;;;;5052276;28;20033;-76
2023/11/07 10:11:17;;;;;;;0.32;0.32;;;;;;;;;;5048674;28;20111;-76
2023/11/07 10:13:59;;;;;;;0.60;0.60;;;;;;;;;;5052950;28;20013;-76
2023/11/07 10:16:34;;;;;;;1.15;0.80;;;;;;;;;;5035195;28;20087;-76
2023/11/07 10:19:02;;;;;;;0.63;0.63;;;;;;;;;;5055359;28;20032;-75
2023/11/07 10:21:29;;;;;;;0.40;0.40;;;;;;;;;;5058217;28;20025;-77
2023/11/07 10:23:55;;;;;;;1.23;0.50;;;;;;;;;;5053986;28;20022;-76
2023/11/07 10:26:24;;;;;;;0.32;0.32;;;;;;;;;;5059875;28;20092;-77
2023/11/07 10:29:04;;;;;;;1.08;0.50;;;;;;;;;;5068347;28;20104;-77
2023/11/07 10:31:30;;;;;;;0.52;0.50;;;;;;;;;;5053931;28;20507;-76
2023/11/07 10:34:17;;;;;;;0.50;0.50;;;;;;;;;;5052577;28;20044;-76
2023/11/07 10:36:47;;;;;;;0.60;0.40;;;;;;;;;;5053442;28;20041;-77
2023/11/07 10:39:17;;;;;;;0.43;0.43;;;;;;;;;;5035223;28;20456;-75
2023/11/07 10:41:46;;;;;;;0.30;0.30;;;;;;;;;;5053089;28;20024;-76
2023/11/07 10:44:25;;;;;;;0.40;0.40;;;;;;;;;;5053124;28;20048;-77
2023/11/07 10:46:55;;;;;;;0.50;0.50;;;;;;;;;;5052260;28;20498;-76
2023/11/07 10:49:22;;;;;;;1.38;0.47;;;;;;;;;;5052698;28;20025;-77
2023/11/07 10:51:48;;;;;;;0.50;0.45;;;;;;;;;;5059462;28;20036;-77
2023/11/07 10:54:19;;;;;;;1.02;0.43;;;;;;;;;;5033965;28;20568;-76
2023/11/07 10:56:46;;;;;;;0.60;0.40;;;;;;;;;;5052615;28;20479;-76
2023/11/07 10:59:23;;;;;;;0.82;0.82;;;;;;;;;;5058580;28;20033;-77
2023/11/07 11:01:52;;;;;;;1.80;0.68;;;;;;;;;;5051860;28;20451;-77
2023/11/07 11:04:20;;;;;;;0.60;0.60;;;;;;;;;;5045494;28;20100;-77
2023/11/07 11:06:52;;;;;;;0.60;0.60;;;;;;;;;;5052630;28;20041;-77
2023/11/07 11:09:19;;;;;;;0.80;0.40;;;;;;;;;;5051993;28;20017;-77
2023/11/07 11:11:48;;;;;;;0.32;0.32;;;;;;;;;;5053991;28;20096;-77
2023/11/07 11:14:14;;;;;;;1.73;0.50;;;;;;;;;;5030900;28;20043;-77
2023/11/07 11:16:41;;;;;;;0.50;0.50;;;;;;;;;;5052336;28;20025;-77
2023/11/07 11:19:11;;;;;;;0.43;0.43;;;;;;;;;;5019598;28;20057;-77
2023/11/07 11:21:46;;;;;;;0.38;0.20;;;;;;;;;;5061765;28;20424;-76
2023/11/07 11:24:15;;;;;;;0.30;0.30;;;;;;;;;;5045760;28;20052;-77
2023/11/07 11:26:47;;;;;;;1.38;0.57;;;;;;;;;;5052045;28;20204;-77
2023/11/07 11:29:24;;;;;;;0.43;0.38;;;;;;;;;;5052784;28;20029;-77
2023/11/07 11:31:51;;;;;;;1.20;0.57;;;;;;;;;;5052038;28;20128;-75
2023/11/07 11:34:24;;;;;;;0.50;0.50;;;;;;;;;;5046564;28;20032;-76
2023/11/07 11:36:57;;;;;;;0.30;0.30;;;;;;;;;;5035761;28;20031;-77
2023/11/07 11:39:29;;;;;;;0.47;0.38;;;;;;;;;;5056339;28;20036;-76
2023/11/07 11:41:56;;;;;;;0.40;0.40;;;;;;;;;;5057147;28;20028;-76
2023/11/07 11:44:25;;;;;;;0.20;0.20;;;;;;;;;;5035958;28;20106;-76
2023/11/07 11:46:52;;;;;;;0.40;0.40;;;;;;;;;;5062226;28;20021;-77
2023/11/07 11:49:21;;;;;;;0.30;0.30;;;;;;;;;;5047654;28;20021;-76
2023/11/07 11:51:48;;;;;;;0.20;0.17;;;;;;;;;;5076242;28;20016;-77
2023/11/07 11:54:16;;;;;;;0.40;0.40;;;;;;;;;;5062860;28;20078;-76
2023/11/07 11:56:51;;;;;;;0.68;0.43;;;;;;;;;;5058456;28;20049;-75
2023/11/07 11:59:17;;;;;;;0.40;0.40;;;;;;;;;;5034881;28;20451;-76
2023/11/07 12:01:50;;;;;;;0.32;0.25;;;;;;;;;;5041680;28;20100;-76
2023/11/07 12:04:26;;;;;;;0.77;0.50;;;;;;;;;;5056219;28;20021;-77
2023/11/07 12:07:14;;;;;;;0.40;0.40;;;;;;;;;;5050537;28;20505;-77
2023/11/07 12:09:44;;;;;;;1.35;0.70;;;;;;;;;;5053390;28;20029;-77
2023/11/07 12:12:13;;;;;;;1.00;0.60;;;;;;;;;;5048045;28;20040;-75
2023/11/07 12:14:54;;;;;;;0.60;0.50;;;;;;;;;;5034700;28;20028;-76
2023/11/07 12:17:24;;;;;;;0.55;0.47;;;;;;;;;;5045182;28;20130;-76
2023/11/07 12:19:50;;;;;;;0.50;0.50;;;;;;;;;;5046595;28;20025;-77
2023/11/07 12:22:16;;;;;;;0.68;0.50;;;;;;;;;;5066686;28;20208;-76
2023/11/07 12:24:43;;;;;;;1.23;0.50;;;;;;;;;;5043524;28;20040;-76
2023/11/07 12:27:10;;;;;;;0.47;0.40;;;;;;;;;;5063582;28;20077;-75
2023/11/07 12:29:36;;;;;;;1.00;0.47;;;;;;;;;;5052729;28;20110;-74
2023/11/07 12:32:03;;;;;;;0.20;0.20;;;;;;;;;;5053080;28;20108;-76
2023/11/07 12:34:33;;;;;;;0.32;0.30;;;;;;;;;;5072009;28;20024;-76
2023/11/07 12:37:03;;;;;;;0.40;0.40;;;;;;;;;;5078682;28;20028;-75
2023/11/07 12:39:31;;;;;;;0.50;0.50;;;;;;;;;;5062570;28;20474;-75
2023/11/07 12:41:58;;;;;;;0.50;0.38;;;;;;;;;;5049745;28;20029;-76
2023/11/07 12:44:24;;;;;;;0.80;0.60;;;;;;;;;;5058759;28;20078;-75
2023/11/07 12:46:50;;;;;;;1.08;0.60;;;;;;;;;;5053478;28;20041;-77
2023/11/07 12:49:17;;;;;;;0.70;0.50;;;;;;;;;;5059963;28;20522;-77
2023/11/07 12:51:44;;;;;;;0.63;0.40;;;;;;;;;;5067690;28;20025;-76
2023/11/07 12:54:12;;;;;;;0.55;0.40;;;;;;;;;;5047664;28;20096;-76
2023/11/07 12:56:42;;;;;;;0.30;0.30;;;;;;;;;;5056964;28;20036;-77
2023/11/07 12:59:17;;;;;;;0.38;0.38;;;;;;;;;;5056885;28;20021;-78
2023/11/07 13:01:45;;;;;;;0.30;0.30;;;;;;;;;;5057333;28;20021;-76
2023/11/07 13:04:13;;;;;;;0.35;0.30;;;;;;;;;;5047166;28;20028;-77
2023/11/07 13:06:50;;;;;;;0.52;0.43;;;;;;;;;;5053247;28;20027;-76
2023/11/07 13:09:20;;;;;;;0.57;0.40;;;;;;;;;;5057425;28;20039;-76
2023/11/07 13:11:46;;;;;;;1.05;0.60;;;;;;;;;;5040955;28;20112;-77
2023/11/07 13:14:12;;;;;;;0.55;0.40;;;;;;;;;;5055758;28;20509;-76
2023/11/07 13:16:41;;;;;;;0.95;0.50;;;;;;;;;;5055781;28;20104;-78
2023/11/07 13:19:07;;;;;;;0.90;0.50;;;;;;;;;;5054687;28;20078;-77
2023/11/07 13:21:33;;;;;;;0.60;0.45;;;;;;;;;;5063003;28;20107;-76
2023/11/07 13:23:59;;;;;;;0.30;0.30;;;;;;;;;;5055926;28;20025;-76
2023/11/07 13:26:25;;;;;;;0.70;0.50;;;;;;;;;;5055116;28;20191;-77
2023/11/07 13:28:51;;;;;;;0.52;0.40;;;;;;;;;;5048122;28;20017;-77
2023/11/07 13:31:18;;;;;;;0.32;0.30;;;;;;;;;;5060171;28;20093;-77
2023/11/07 13:33:45;;;;;;;0.63;0.63;;;;;;;;;;5058558;28;20017;-77
2023/11/07 13:36:14;;;;;;;0.32;0.30;;;;;;;;;;5041132;28;20112;-77
2023/11/07 13:38:41;;;;;;;0.57;0.50;;;;;;;;;;5055286;28;20417;-77
2023/11/07 13:41:07;;;;;;;0.73;0.60;;;;;;;;;;5054804;28;20048;-77
2023/11/07 13:43:34;;;;;;;0.68;0.40;;;;;;;;;;5057701;28;20049;-78
2023/11/07 13:46:00;;;;;;;0.30;0.30;;;;;;;;;;5055257;28;20468;-76
2023/11/07 13:48:26;;;;;;;0.40;0.40;;;;;;;;;;5053866;28;20368;-77
2023/11/07 13:50:53;;;;;;;0.95;0.40;;;;;;;;;;5053448;28;20109;-77
2023/11/07 13:53:19;;;;;;;2.00;0.60;;;;;;;;;;5044766;28;20444;-77
2023/11/07 13:55:45;;;;;;;0.40;0.30;;;;;;;;;;5055930;28;20033;-76
2023/11/07 13:58:11;;;;;;;0.40;0.40;;;;;;;;;;5052143;28;20071;-75
2023/11/07 14:00:38;;;;;;;0.30;0.20;;;;;;;;;;5050629;28;20077;-76
2023/11/07 14:03:04;;;;;;;0.30;0.30;;;;;;;;;;5055339;28;20025;-76
2023/11/07 14:05:33;;;;;;;0.30;0.30;;;;;;;;;;5054930;28;20032;-77
2023/11/07 14:08:00;;;;;;;0.55;0.55;;;;;;;;;;5054361;28;20079;-77
2023/11/07 14:10:26;;;;;;;0.47;0.47;;;;;;;;;;5050807;28;20021;-77
2023/11/07 14:12:55;;;;;;;0.45;0.30;;;;;;;;;;5050450;28;20040;-77
2023/11/07 14:15:32;;;;;;;0.75;0.40;;;;;;;;;;5056511;28;20017;-75
2023/11/07 14:18:04;;;;;;;0.47;0.47;;;;;;;;;;5065369;28;20078;-78
2023/11/07 14:20:31;;;;;;;0.43;0.43;;;;;;;;;;5038380;28;20049;-77
2023/11/07 14:22:58;;;;;;;0.50;0.30;;;;;;;;;;5063263;28;20052;-75
2023/11/07 14:25:33;;;;;;;1.23;0.30;;;;;;;;;;5055821;28;20025;-76
2023/11/07 14:28:04;;;;;;;0.43;0.43;;;;;;;;;;5066010;28;20040;-76
2023/11/07 14:30:30;;;;;;;0.40;0.28;;;;;;;;;;5038486;28;20056;-75
2023/11/07 14:32:57;;;;;;;0.90;0.50;;;;;;;;;;5064913;28;20515;-76
2023/11/07 14:35:23;;;;;;;1.75;0.50;;;;;;;;;;5036896;28;20480;-75
2023/11/07 14:37:50;;;;;;;1.00;0.75;;;;;;;;;;5055765;28;20029;-76
2023/11/07 14:40:16;;;;;;;0.68;0.40;;;;;;;;;;5067858;28;20035;-76
2023/11/07 14:42:42;;;;;;;0.35;0.35;;;;;;;;;;5064823;28;20041;-76
2023/11/07 14:45:12;;;;;;;0.98;0.60;;;;;;;;;;5053823;28;20024;-76